CYXE

Saskatoon John G. Diefenbaker International Airport

Saskatoon, Saskatchewan, Canada
METAR CYXE 230700Z 21006KT 15SM SKC M19/M21 A3021 RMK SLP280
Observed Flight Rules
Feb-23 @ 07:00 UTC (an hour ago) Visual Flight Rules
Wind Visibility Clouds
210° at 6 knots 15 miles
  • Clear skies
Temperatures Readings
Current -19°C / -2°F
Dewpoint -21°C / -6°F
Humidity 84%
Altimeter 30.21" Hg
Pressure 1028 hPa
Elevation 504
METAR CYXE 230700Z 21006KT 15SM SKC M19/M21 A3021 RMK SLP280
Observed Flight Rules
Feb-23 @ 07:00 UTC
(an hour ago)
VFR
Wind Visibility
210° at 6 knots 15 miles
Clouds
  • Clear skies
Temperature Dewpoint
-19°C / -2°F -21°C / -6°F
Humidity Altimeter Pressure
84% 30.21" Hg 1028 hPa